Time,TemperatureF,DewpointF,PressureIn,WindDirection,WindDirectionDegrees,WindSpeedMPH,WindSpeedGustMPH,Humidity,HourlyPrecipIn,Conditions,Clouds,dailyrainin,SoftwareType,DateUTC
2013-04-01 00:00:00,23.4,6.6,29.94,North,0,3.1,11.4,48,0.00,,SKC,0.00,VWS V14.01,2013-04-01 05:00:00,
2013-04-01 00:20:00,23.0,6.2,29.94,NW,315,3.6,7.0,48,0.00,,SKC,0.00,VWS V14.01,2013-04-01 05:20:00,
2013-04-01 00:40:00,23.0,5.8,29.94,SSE,158,0.0,8.6,47,0.00,,SKC,0.00,VWS V14.01,2013-04-01 05:40:00,
2013-04-01 01:00:00,23.2,5.9,29.94,South,180,3.1,9.8,47,0.00,,SKC,0.00,VWS V14.01,2013-04-01 06:00:00,
2013-04-01 01:20:00,23.2,5.9,29.94,NNW,338,2.3,7.0,47,0.00,,SKC,0.00,VWS V14.01,2013-04-01 06:20:00,
2013-04-01 01:40:00,23.0,5.8,29.97,WSW,248,3.1,7.4,47,0.00,,SKC,0.00,VWS V14.01,2013-04-01 06:40:00,
2013-04-01 02:00:00,23.0,5.8,29.94,NW,315,3.1,8.6,47,0.00,,SKC,0.00,VWS V14.01,2013-04-01 07:00:00,
2013-04-01 02:20:00,22.8,5.2,29.97,SSE,158,3.3,8.6,46,0.00,,SKC,0.00,VWS V14.01,2013-04-01 07:20:00,
2013-04-01 02:40:00,22.8,5.2,29.97,NNW,338,2.3,9.8,46,0.00,,SKC,0.00,VWS V14.01,2013-04-01 07:40:00,
2013-04-01 03:00:00,22.6,5.0,29.97,ESE,112,1.8,8.6,46,0.00,,SKC,0.00,VWS V14.01,2013-04-01 08:00:00,
2013-04-01 03:20:00,22.5,4.8,29.97,SSW,202,1.3,8.2,46,0.00,,SKC,0.00,VWS V14.01,2013-04-01 08:20:00,
2013-04-01 03:40:00,22.1,5.0,29.97,NW,315,3.1,6.3,47,0.00,,SKC,0.00,VWS V14.01,2013-04-01 08:40:00,
2013-04-01 04:00:00,21.7,5.5,29.97,SW,225,3.1,6.7,49,0.00,,SKC,0.00,VWS V14.01,2013-04-01 09:00:00,
2013-04-01 04:20:00,21.6,7.1,29.97,WNW,292,2.8,10.2,53,0.00,,SKC,0.00,VWS V14.01,2013-04-01 09:20:00,
2013-04-01 04:40:00,21.2,8.0,29.97,NW,315,1.5,6.7,56,0.00,,SKC,0.00,VWS V14.01,2013-04-01 09:40:00,
2013-04-01 05:00:00,21.2,8.0,29.97,SSW,202,4.1,7.4,56,0.00,,SKC,0.00,VWS V14.01,2013-04-01 10:00:00,
2013-04-01 05:20:00,20.7,6.2,30.00,WNW,292,1.8,8.2,53,0.00,,SKC,0.00,VWS V14.01,2013-04-01 10:20:00,
2013-04-01 05:40:00,20.3,5.9,30.03,WNW,292,2.3,8.6,53,0.00,,SKC,0.00,VWS V14.01,2013-04-01 10:40:00,
2013-04-01 06:00:00,19.6,5.7,30.00,WSW,248,3.6,12.9,54,0.00,,SKC,0.00,VWS V14.01,2013-04-01 11:00:00,
2013-04-01 06:20:00,18.9,5.0,30.03,WSW,248,1.8,14.9,54,0.00,,SKC,0.00,VWS V14.01,2013-04-01 11:20:00,
2013-04-01 06:40:00,18.1,4.7,30.03,West,270,3.9,8.6,55,0.00,,SKC,0.00,VWS V14.01,2013-04-01 11:40:00,
2013-04-01 07:00:00,17.4,4.8,30.03,SSW,202,2.3,9.8,57,0.00,,SKC,0.00,VWS V14.01,2013-04-01 12:00:00,
2013-04-01 07:20:00,16.9,4.7,30.03,South,180,3.1,9.4,58,0.00,,SKC,0.00,VWS V14.01,2013-04-01 12:20:00,
2013-04-01 07:40:00,16.9,5.0,30.06,WNW,292,2.8,9.8,59,0.00,,SKC,0.00,VWS V14.01,2013-04-01 12:40:00,
2013-04-01 08:00:00,17.2,5.4,30.03,NNW,338,2.8,8.2,59,0.00,,SKC,0.00,VWS V14.01,2013-04-01 13:00:00,
2013-04-01 08:20:00,19.2,6.9,30.06,SSE,158,1.3,11.0,58,0.00,,SKC,0.00,VWS V14.01,2013-04-01 13:20:00,
2013-04-01 08:40:00,19.2,5.7,30.06,NNW,338,3.3,10.6,55,0.00,,SKC,0.00,VWS V14.01,2013-04-01 13:40:00,
2013-04-01 09:00:00,19.9,6.4,30.06,West,270,3.9,11.4,55,0.00,,SKC,0.00,VWS V14.01,2013-04-01 14:00:00,
2013-04-01 09:20:00,20.7,6.2,30.06,NNW,338,6.7,14.9,53,0.00,,SKC,0.00,VWS V14.01,2013-04-01 14:20:00,
2013-04-01 09:40:00,23.0,8.4,30.06,WNW,292,1.8,16.4,53,0.00,,SKC,0.00,VWS V14.01,2013-04-01 14:40:00,
2013-04-01 10:00:00,23.0,5.8,30.06,East,90,2.8,14.9,47,0.00,,SKC,0.00,VWS V14.01,2013-04-01 15:00:00,
2013-04-01 10:20:00,24.4,7.1,30.09,WNW,292,6.9,11.4,47,0.00,,SKC,0.00,VWS V14.01,2013-04-01 15:20:00,
2013-04-01 10:40:00,25.0,6.2,30.09,SSW,202,3.3,17.2,44,0.00,,SKC,0.00,VWS V14.01,2013-04-01 15:40:00,
2013-04-01 11:00:00,25.7,6.8,30.09,ESE,112,3.3,14.9,44,0.00,,SKC,0.00,VWS V14.01,2013-04-01 16:00:00,
2013-04-01 11:20:00,26.8,7.3,30.09,NNW,338,4.9,11.0,43,0.00,,SKC,0.00,VWS V14.01,2013-04-01 16:20:00,
2013-04-01 11:40:00,27.9,8.3,30.09,NNW,338,6.7,13.7,43,0.00,,SKC,0.00,VWS V14.01,2013-04-01 16:40:00,
2013-04-01 12:00:00,28.9,9.3,30.09,WNW,292,2.3,10.2,43,0.00,,SKC,0.00,VWS V14.01,2013-04-01 17:00:00,
2013-04-01 12:20:00,28.4,8.2,30.09,SSW,202,4.6,18.4,42,0.08,,SKC,0.08,VWS V14.01,2013-04-01 17:20:00,
2013-04-01 12:40:00,28.9,8.2,30.06,NNW,338,2.3,17.6,41,0.08,,SKC,0.08,VWS V14.01,2013-04-01 17:40:00,
2013-04-01 13:00:00,29.8,9.0,30.06,WSW,248,4.1,11.4,41,0.08,,SKC,0.08,VWS V14.01,2013-04-01 18:00:00,
2013-04-01 13:20:00,29.5,8.1,30.06,NW,315,8.2,16.4,40,0.08,,SKC,0.08,VWS V14.01,2013-04-01 18:20:00,
2013-04-01 13:40:00,29.3,7.4,30.09,WNW,292,4.4,15.3,39,0.00,,SKC,0.08,VWS V14.01,2013-04-01 18:40:00,
2013-04-01 14:00:00,30.4,9.0,30.06,NW,315,4.9,18.8,40,0.00,,SKC,0.08,VWS V14.01,2013-04-01 19:00:00,
2013-04-01 14:20:00,30.7,9.3,30.06,NNW,338,4.6,12.1,40,0.00,,SKC,0.08,VWS V14.01,2013-04-01 19:20:00,
2013-04-01 14:40:00,31.3,9.2,30.06,NNW,338,4.1,14.9,39,0.00,,SKC,0.08,VWS V14.01,2013-04-01 19:40:00,
2013-04-01 15:00:00,31.1,9.1,30.06,NNW,338,2.8,21.9,39,0.00,,SKC,0.08,VWS V14.01,2013-04-01 20:00:00,
2013-04-01 15:20:00,30.7,7.0,30.06,NW,315,5.7,13.7,36,0.00,,SKC,0.08,VWS V14.01,2013-04-01 20:20:00,
2013-04-01 15:40:00,31.6,9.0,30.06,NNE,22,2.6,14.9,38,0.00,,SKC,0.08,VWS V14.01,2013-04-01 20:40:00,
2013-04-01 16:00:00,31.6,8.4,30.06,NW,315,4.6,17.6,37,0.00,,SKC,0.08,VWS V14.01,2013-04-01 21:00:00,
2013-04-01 16:20:00,31.5,7.6,30.06,West,270,2.6,13.3,36,0.00,,SKC,0.08,VWS V14.01,2013-04-01 21:20:00,
2013-04-01 16:40:00,32.0,8.1,30.06,NW,315,6.2,14.9,36,0.00,,SKC,0.08,VWS V14.01,2013-04-01 21:40:00,
2013-04-01 17:00:00,31.8,7.9,30.06,West,270,4.4,15.3,36,0.00,,SKC,0.08,VWS V14.01,2013-04-01 22:00:00,
2013-04-01 17:20:00,31.8,7.3,30.06,North,0,3.1,15.3,35,0.00,,SKC,0.08,VWS V14.01,2013-04-01 22:20:00,
2013-04-01 17:40:00,31.3,6.8,30.06,NNW,338,4.6,12.5,35,0.00,,SKC,0.08,VWS V14.01,2013-04-01 22:40:00,
2013-04-01 18:00:00,31.5,7.6,30.06,SSW,202,3.6,11.4,36,0.00,,SKC,0.08,VWS V14.01,2013-04-01 23:00:00,
2013-04-01 18:20:00,30.9,7.1,30.06,WSW,248,8.5,15.3,36,0.00,,SKC,0.08,VWS V14.01,2013-04-01 23:20:00,
2013-04-01 18:40:00,30.6,6.8,30.06,SW,225,2.6,12.9,36,0.00,,SKC,0.08,VWS V14.01,2013-04-01 23:40:00,
2013-04-01 19:00:00,30.2,7.1,30.06,WNW,292,2.8,7.8,37,0.00,,SKC,0.08,VWS V14.01,2013-04-02 00:00:00,
2013-04-01 19:20:00,29.7,6.6,30.06,WNW,292,2.3,10.6,37,0.00,,SKC,0.08,VWS V14.01,2013-04-02 00:20:00,
2013-04-01 19:40:00,29.1,5.5,30.06,WSW,248,4.6,17.6,36,0.00,,SKC,0.08,VWS V14.01,2013-04-02 00:40:00,
2013-04-01 20:00:00,28.4,6.1,30.03,NNW,338,3.6,11.4,38,0.00,,SKC,0.08,VWS V14.01,2013-04-02 01:00:00,
2013-04-01 20:20:00,28.0,5.7,30.06,WSW,248,1.0,7.0,38,0.00,,SKC,0.08,VWS V14.01,2013-04-02 01:20:00,
2013-04-01 20:40:00,27.5,5.8,30.06,WSW,248,0.0,9.4,39,0.00,,SKC,0.08,VWS V14.01,2013-04-02 01:40:00,
2013-04-01 21:00:00,27.5,6.4,30.06,WNW,292,0.0,10.6,40,0.00,,SKC,0.08,VWS V14.01,2013-04-02 02:00:00,
2013-04-01 21:20:00,27.1,6.0,30.06,NNW,338,3.9,11.4,40,0.00,,SKC,0.08,VWS V14.01,2013-04-02 02:20:00,
2013-04-01 21:40:00,26.8,6.2,30.06,WNW,292,1.5,7.0,41,0.00,,SKC,0.08,VWS V14.01,2013-04-02 02:40:00,
2013-04-01 22:00:00,26.4,5.9,30.06,WNW,292,2.8,7.4,41,0.00,,SKC,0.08,VWS V14.01,2013-04-02 03:00:00,
2013-04-01 22:20:00,25.9,6.0,30.09,SW,225,1.0,8.6,42,0.00,,SKC,0.08,VWS V14.01,2013-04-02 03:20:00,
2013-04-01 22:40:00,25.3,5.5,30.09,SSW,202,2.3,3.9,42,0.00,,SKC,0.08,VWS V14.01,2013-04-02 03:40:00,
2013-04-01 23:00:00,25.2,5.8,30.06,SE,135,0.0,6.3,43,0.00,,SKC,0.08,VWS V14.01,2013-04-02 04:00:00,
2013-04-01 23:20:00,24.8,5.5,30.09,WSW,248,1.5,5.5,43,0.00,,SKC,0.08,VWS V14.01,2013-04-02 04:20:00,
2013-04-01 23:40:00,24.4,5.7,30.09,SSW,202,5.1,7.8,44,0.00,,SKC,0.08,VWS V14.01,2013-04-02 04:40:00,